createdAt,value
2018-07-11T00:01:34.804Z,15.60
2018-07-11T00:04:04.384Z,14.77
2018-07-11T00:06:33.494Z,16.40
2018-07-11T00:09:02.003Z,15.87
2018-07-11T00:11:30.506Z,15.67
2018-07-11T00:13:59.059Z,15.73
2018-07-11T00:16:27.711Z,15.70
2018-07-11T00:18:56.409Z,15.03
2018-07-11T00:21:24.975Z,15.90
2018-07-11T00:23:53.699Z,15.43
2018-07-11T00:26:22.216Z,16.33
2018-07-11T00:28:50.768Z,17.40
2018-07-11T00:31:19.327Z,17.47
2018-07-11T00:33:47.858Z,17.53
2018-07-11T00:36:16.440Z,18.40
2018-07-11T00:38:45.608Z,18.27
2018-07-11T00:41:14.166Z,19.40
2018-07-11T00:43:42.723Z,19.77
2018-07-11T00:46:11.259Z,18.97
2018-07-11T00:48:39.781Z,20.03
2018-07-11T00:51:08.306Z,19.60
2018-07-11T00:53:37.257Z,19.07
2018-07-11T00:56:05.841Z,20.23
2018-07-11T00:58:38.431Z,20.17
2018-07-11T01:01:16.980Z,19.63
2018-07-11T01:03:50.067Z,21.00
2018-07-11T01:06:19.176Z,21.70
2018-07-11T01:08:50.692Z,21.83
2018-07-11T01:11:19.274Z,21.60
2018-07-11T01:13:48.537Z,21.77
2018-07-11T01:16:17.959Z,22.70
2018-07-11T01:19:04.960Z,21.90
2018-07-11T01:21:34.260Z,21.77
2018-07-11T01:24:02.864Z,23.30
2018-07-11T01:26:35.416Z,22.83
2018-07-11T01:29:04.354Z,20.67
2018-07-11T01:31:32.920Z,19.77
2018-07-11T01:34:01.641Z,19.30
2018-07-11T01:36:30.787Z,19.10
2018-07-11T01:39:00.237Z,21.60
2018-07-11T01:41:28.820Z,21.53
2018-07-11T01:43:57.421Z,19.97
2018-07-11T01:46:30.222Z,20.23
2018-07-11T01:48:58.792Z,23.10
2018-07-11T01:51:38.585Z,22.67
2018-07-11T01:54:07.160Z,24.03
2018-07-11T01:56:35.802Z,25.20
2018-07-11T01:59:04.439Z,24.20
2018-07-11T02:01:32.988Z,23.87
2018-07-11T02:04:01.566Z,23.80
2018-07-11T02:06:30.127Z,25.43
2018-07-11T02:08:58.704Z,25.10
2018-07-11T02:11:27.284Z,24.43
2018-07-11T02:13:56.013Z,24.93
2018-07-11T02:16:24.695Z,22.90
2018-07-11T02:18:53.572Z,22.40
2018-07-11T02:21:24.554Z,23.03
2018-07-11T02:23:53.160Z,23.43
2018-07-11T02:26:21.727Z,23.10
2018-07-11T02:28:50.329Z,22.83
2018-07-11T02:31:19.005Z,23.47
2018-07-11T02:33:47.733Z,23.33
2018-07-11T02:36:16.290Z,25.10
2018-07-11T02:38:44.977Z,24.70
2018-07-11T02:41:13.568Z,28.27
2018-07-11T02:43:42.150Z,34.93
2018-07-11T02:46:10.793Z,32.60
2018-07-11T02:48:39.387Z,38.53
2018-07-11T02:51:07.959Z,40.27
2018-07-11T02:53:36.574Z,47.87
2018-07-11T02:56:05.150Z,46.37
2018-07-11T02:58:33.707Z,47.90
2018-07-11T03:01:02.300Z,51.13
2018-07-11T03:03:30.998Z,48.60
2018-07-11T03:05:59.597Z,47.27
2018-07-11T03:08:36.156Z,46.57
2018-07-11T03:11:05.613Z,47.13
2018-07-11T03:13:34.331Z,47.67
2018-07-11T03:16:03.144Z,44.77
2018-07-11T03:18:31.822Z,43.30
2018-07-11T03:21:00.380Z,44.47
2018-07-11T03:23:29.013Z,43.30
2018-07-11T03:25:57.633Z,42.20
2018-07-11T03:28:26.368Z,42.77
2018-07-11T03:30:55.020Z,41.83
2018-07-11T03:33:23.637Z,42.53
2018-07-11T03:35:52.234Z,42.20
2018-07-11T03:38:20.920Z,41.30
2018-07-11T03:40:49.626Z,42.40
2018-07-11T03:43:18.293Z,42.77
2018-07-11T03:45:46.848Z,42.80
2018-07-11T03:48:15.438Z,39.83
2018-07-11T03:50:43.989Z,40.17
2018-07-11T03:53:12.657Z,39.70
2018-07-11T03:55:41.197Z,39.70
2018-07-11T03:58:09.889Z,41.17
2018-07-11T04:00:38.516Z,40.43
2018-07-11T04:03:07.336Z,38.63
2018-07-11T04:05:35.990Z,39.60
2018-07-11T04:08:04.582Z,36.87
2018-07-11T04:10:33.157Z,38.33
2018-07-11T04:13:02.528Z,38.10
2018-07-11T04:15:31.120Z,38.20
2018-07-11T04:17:59.717Z,36.93
2018-07-11T04:20:28.313Z,39.37
2018-07-11T04:22:56.984Z,38.77
2018-07-11T04:25:25.574Z,37.33
2018-07-11T04:27:54.139Z,38.73
2018-07-11T04:30:22.717Z,40.30
2018-07-11T04:32:51.418Z,38.90
2018-07-11T04:35:19.939Z,36.90
2018-07-11T04:37:48.561Z,38.23
2018-07-11T04:40:17.124Z,39.40
2018-07-11T04:42:45.687Z,37.83
2018-07-11T04:45:14.209Z,39.63
2018-07-11T04:47:43.084Z,40.93
2018-07-11T04:50:11.637Z,39.30
2018-07-11T04:52:40.260Z,41.37
2018-07-11T04:55:08.816Z,38.73
2018-07-11T04:57:37.360Z,40.83
2018-07-11T05:00:05.902Z,37.97
2018-07-11T05:02:34.511Z,39.10
2018-07-11T05:05:03.195Z,37.17
2018-07-11T05:07:31.876Z,38.67
2018-07-11T05:10:00.462Z,37.90
2018-07-11T05:12:29.040Z,37.80
2018-07-11T05:14:57.630Z,37.50
2018-07-11T05:17:25.933Z,36.60
2018-07-11T05:19:54.515Z,36.70
2018-07-11T05:22:23.241Z,37.77
2018-07-11T05:24:51.808Z,38.77
2018-07-11T05:27:20.581Z,38.47
2018-07-11T05:29:49.188Z,38.97
2018-07-11T05:32:17.857Z,37.00
2018-07-11T05:34:46.445Z,39.97
2018-07-11T05:37:15.017Z,38.33
2018-07-11T05:39:43.560Z,38.77
2018-07-11T05:42:12.132Z,36.70
2018-07-11T05:44:40.780Z,36.73
2018-07-11T05:47:08.992Z,36.00
2018-07-11T05:49:37.566Z,36.27
2018-07-11T05:52:06.197Z,37.57
2018-07-11T05:54:35.191Z,34.33
2018-07-11T05:57:03.908Z,35.10
2018-07-11T05:59:32.452Z,34.83
2018-07-11T06:02:01.386Z,35.20
2018-07-11T06:04:29.941Z,33.57
2018-07-11T06:06:58.569Z,33.37
2018-07-11T06:09:27.128Z,34.07
2018-07-11T06:11:55.783Z,31.93
2018-07-11T06:14:24.340Z,31.03
2018-07-11T06:16:52.944Z,29.57
2018-07-11T06:19:21.669Z,28.90
2018-07-11T06:21:51.281Z,26.53
2018-07-11T06:24:20.669Z,25.77
2018-07-11T06:26:49.618Z,25.93
2018-07-11T06:29:18.343Z,28.00
2018-07-11T06:31:47.019Z,27.60
2018-07-11T06:34:15.589Z,27.63
2018-07-11T06:36:44.181Z,28.67
2018-07-11T06:39:12.776Z,31.53
2018-07-11T06:41:41.332Z,31.23
2018-07-11T06:44:10.096Z,29.23
2018-07-11T06:46:39.661Z,30.57
2018-07-11T06:49:08.268Z,27.97
2018-07-11T06:51:36.856Z,27.90
2018-07-11T06:54:06.718Z,27.97
2018-07-11T06:56:35.325Z,26.73
2018-07-11T06:59:03.880Z,25.87
2018-07-11T07:01:32.553Z,28.23
2018-07-11T07:04:01.129Z,28.47
2018-07-11T07:06:29.717Z,27.70
2018-07-11T07:08:58.317Z,25.27
2018-07-11T07:11:26.946Z,23.57
2018-07-11T07:13:55.640Z,25.00
2018-07-11T07:16:24.304Z,24.53
2018-07-11T07:18:52.863Z,22.80
2018-07-11T07:21:21.478Z,24.63
2018-07-11T07:23:50.084Z,24.53
2018-07-11T07:26:18.681Z,25.47
2018-07-11T07:28:47.556Z,27.13
2018-07-11T07:31:16.228Z,27.63
2018-07-11T07:33:44.801Z,26.47
2018-07-11T07:36:13.472Z,26.70
2018-07-11T07:38:43.679Z,26.57
2018-07-11T07:41:12.295Z,25.03
2018-07-11T07:43:42.107Z,25.20
2018-07-11T07:46:10.680Z,25.27
2018-07-11T07:48:39.293Z,24.23
2018-07-11T07:51:07.908Z,23.43
2018-07-11T07:53:36.545Z,25.30
2018-07-11T07:56:05.602Z,25.33
2018-07-11T07:58:34.198Z,24.80
2018-07-11T08:01:02.893Z,22.53
2018-07-11T08:03:34.061Z,25.43
2018-07-11T08:06:02.769Z,23.83
2018-07-11T08:08:31.437Z,26.40
2018-07-11T08:11:00.232Z,25.97
2018-07-11T08:13:28.809Z,27.77
2018-07-11T08:15:57.718Z,27.40
2018-07-11T08:18:26.362Z,26.73
2018-07-11T08:20:55.042Z,25.17
2018-07-11T08:23:41.944Z,25.97
2018-07-11T08:26:22.212Z,24.57
2018-07-11T08:29:39.235Z,22.03
2018-07-11T08:34:50.764Z,23.20
2018-07-11T08:57:12.642Z,17.80
2018-07-11T09:00:52.901Z,21.17
2018-07-11T09:05:42.721Z,19.90
2018-07-11T09:27:47.604Z,20.63
2018-07-11T09:30:16.177Z,20.20
2018-07-11T09:32:44.746Z,20.97
2018-07-11T09:35:13.336Z,19.77
2018-07-11T09:37:41.889Z,20.13
2018-07-11T09:40:10.458Z,19.30
2018-07-11T09:42:38.987Z,18.10
2018-07-11T09:45:07.535Z,17.60
2018-07-11T09:47:36.079Z,19.70
2018-07-11T09:50:04.736Z,21.27
2018-07-11T09:52:33.239Z,20.63
2018-07-11T09:55:03.093Z,21.33
2018-07-11T09:57:32.707Z,22.57
2018-07-11T10:00:01.398Z,23.10
2018-07-11T10:02:30.030Z,22.37
2018-07-11T10:04:58.602Z,21.07
2018-07-11T10:07:27.100Z,20.67
2018-07-11T10:09:56.138Z,20.67
2018-07-11T10:12:24.689Z,19.60
2018-07-11T10:14:53.184Z,19.40
2018-07-11T10:17:21.695Z,18.83
2018-07-11T10:19:50.265Z,16.33
2018-07-11T10:22:18.928Z,18.10
2018-07-11T10:24:47.581Z,16.40
2018-07-11T10:27:16.143Z,18.47
2018-07-11T10:29:44.772Z,17.07
2018-07-11T10:32:13.399Z,16.73
2018-07-11T10:34:41.936Z,18.83
2018-07-11T10:37:10.428Z,18.10
2018-07-11T10:39:38.979Z,18.60
2018-07-11T10:42:07.544Z,18.37
2018-07-11T10:44:36.149Z,20.53
2018-07-11T10:47:10.528Z,19.70
2018-07-11T10:49:39.115Z,20.63
2018-07-11T10:52:08.188Z,21.23
2018-07-11T10:54:36.772Z,21.83
2018-07-11T10:57:05.348Z,21.07
2018-07-11T10:59:33.894Z,21.80
2018-07-11T11:02:02.421Z,22.70
2018-07-11T11:04:31.002Z,24.30
2018-07-11T11:06:59.511Z,23.83
2018-07-11T11:09:28.188Z,23.13
2018-07-11T11:11:56.751Z,25.00
2018-07-11T11:14:25.354Z,25.40
2018-07-11T11:16:53.860Z,24.23
2018-07-11T11:19:22.532Z,24.90
2018-07-11T11:21:51.170Z,25.83
2018-07-11T11:24:19.758Z,26.93
2018-07-11T11:26:48.359Z,28.97
2018-07-11T11:29:17.165Z,28.57
2018-07-11T11:31:45.736Z,30.47
2018-07-11T11:34:14.303Z,23.43
2018-07-11T11:36:42.823Z,21.27
2018-07-11T11:39:11.009Z,19.77
2018-07-11T11:41:39.674Z,20.97
2018-07-11T11:44:08.151Z,21.77
2018-07-11T11:46:36.705Z,22.40
2018-07-11T11:49:05.268Z,21.83
2018-07-11T11:51:33.856Z,23.30
2018-07-11T11:54:02.427Z,24.57
2018-07-11T11:56:31.071Z,25.23
2018-07-11T11:58:59.816Z,22.30
2018-07-11T12:01:28.460Z,24.77
2018-07-11T12:03:57.074Z,19.97
2018-07-11T12:06:25.745Z,20.13
2018-07-11T12:08:54.280Z,18.60
2018-07-11T12:11:23.508Z,17.73
2018-07-11T12:13:52.021Z,16.37
2018-07-11T12:16:20.633Z,16.17
2018-07-11T12:18:49.165Z,18.23
2018-07-11T12:21:17.754Z,18.07
2018-07-11T12:23:46.290Z,18.40
2018-07-11T12:26:14.574Z,15.67
2018-07-11T12:28:43.195Z,16.20
2018-07-11T12:31:11.870Z,15.27
2018-07-11T12:33:40.442Z,13.73
2018-07-11T12:36:09.014Z,10.27
2018-07-11T12:38:37.587Z,10.53
2018-07-11T12:41:06.399Z,10.73
2018-07-11T12:43:34.987Z,10.70
2018-07-11T12:46:03.198Z,10.97
2018-07-11T12:48:36.995Z,11.93
2018-07-11T12:51:05.548Z,11.77
2018-07-11T12:53:34.915Z,13.17
2018-07-11T12:56:03.725Z,14.53
2018-07-11T12:58:32.422Z,13.93
2018-07-11T13:01:01.023Z,12.77
2018-07-11T13:03:29.657Z,15.63
2018-07-11T13:05:58.248Z,15.73
2018-07-11T13:08:26.819Z,14.33
2018-07-11T13:10:55.413Z,15.90
2018-07-11T13:13:24.088Z,16.07
2018-07-11T13:15:52.711Z,15.67
2018-07-11T13:18:21.215Z,15.53
2018-07-11T13:20:49.829Z,17.57
2018-07-11T13:23:18.491Z,15.93
2018-07-11T13:25:47.059Z,14.63
2018-07-11T13:28:15.679Z,14.50
2018-07-11T13:30:44.293Z,13.87
2018-07-11T13:33:12.556Z,14.00
2018-07-11T13:35:41.203Z,13.80
2018-07-11T13:38:11.890Z,14.13
2018-07-11T13:40:40.485Z,11.60
2018-07-11T13:43:09.716Z,11.70
2018-07-11T13:45:38.273Z,13.00
2018-07-11T13:48:07.196Z,12.50
2018-07-11T13:50:36.117Z,12.60
2018-07-11T13:53:04.635Z,13.53
2018-07-11T13:55:33.366Z,11.27
2018-07-11T13:58:02.938Z,12.20
2018-07-11T14:00:32.683Z,11.20
2018-07-11T14:03:01.585Z,9.57
2018-07-11T14:05:30.057Z,10.70
2018-07-11T14:07:58.667Z,9.80
2018-07-11T14:10:27.309Z,11.47
2018-07-11T14:12:55.840Z,11.77
2018-07-11T14:15:24.405Z,10.50
2018-07-11T14:17:53.031Z,9.97
2018-07-11T14:20:21.625Z,8.90
2018-07-11T14:22:50.212Z,7.43
2018-07-11T14:25:19.280Z,6.63
2018-07-11T14:27:50.008Z,7.03
2018-07-11T14:30:23.328Z,8.00
2018-07-11T14:32:55.150Z,8.60
2018-07-11T14:35:23.686Z,8.87
2018-07-11T14:37:52.300Z,9.97
2018-07-11T14:40:21.957Z,10.10
2018-07-11T14:42:50.641Z,10.33
2018-07-11T14:45:19.252Z,10.93
2018-07-11T14:47:53.261Z,10.60
2018-07-11T14:50:21.792Z,12.53
2018-07-11T14:52:50.474Z,12.97
2018-07-11T14:55:19.019Z,13.43
2018-07-11T14:57:47.985Z,12.57
2018-07-11T15:00:16.535Z,11.03
2018-07-11T15:02:45.132Z,12.17
2018-07-11T15:05:13.656Z,10.20
2018-07-11T15:07:42.209Z,8.70
2018-07-11T15:10:10.783Z,8.27
2018-07-11T15:12:39.365Z,9.47
2018-07-11T15:15:07.944Z,10.57
2018-07-11T15:17:36.544Z,10.37
2018-07-11T15:20:05.340Z,13.47
2018-07-11T15:22:33.958Z,16.60
2018-07-11T15:25:02.597Z,13.40
2018-07-11T15:27:31.179Z,12.77
2018-07-11T15:29:59.728Z,11.63
2018-07-11T15:32:28.451Z,10.73
2018-07-11T15:34:57.054Z,8.07
2018-07-11T15:37:26.251Z,6.90
2018-07-11T15:39:55.221Z,7.47
2018-07-11T15:42:23.908Z,6.70
2018-07-11T15:44:53.796Z,6.80
2018-07-11T15:47:22.779Z,7.20
2018-07-11T15:49:53.314Z,7.93
2018-07-11T15:52:23.812Z,8.10
2018-07-11T15:54:52.967Z,9.03
2018-07-11T15:57:32.584Z,9.50
2018-07-11T16:00:05.155Z,9.23
2018-07-11T16:02:35.200Z,9.63
2018-07-11T16:05:03.906Z,10.07
2018-07-11T16:07:35.731Z,11.03
2018-07-11T16:10:04.398Z,11.90
2018-07-11T16:12:33.110Z,10.53
2018-07-11T16:15:01.817Z,9.17
2018-07-11T16:17:30.409Z,10.23
2018-07-11T16:19:59.088Z,10.50
2018-07-11T16:22:27.729Z,11.13
2018-07-11T16:24:56.422Z,10.20
2018-07-11T16:27:25.264Z,9.27
2018-07-11T16:29:53.808Z,8.10
2018-07-11T16:34:13.402Z,8.37
2018-07-11T16:36:42.155Z,9.37
2018-07-11T16:39:10.779Z,9.47
2018-07-11T16:41:39.468Z,9.53
2018-07-11T16:44:08.135Z,10.23
2018-07-11T16:46:36.938Z,10.30
2018-07-11T16:49:05.571Z,9.93
2018-07-11T16:51:34.312Z,10.10
2018-07-11T16:54:03.331Z,9.87
2018-07-11T16:56:31.848Z,10.33
2018-07-11T16:59:02.328Z,9.47
2018-07-11T17:01:38.200Z,10.17
2018-07-11T17:04:08.234Z,9.23
2018-07-11T17:06:37.591Z,10.40
2018-07-11T17:09:06.311Z,10.57
2018-07-11T17:11:34.947Z,9.27
2018-07-11T17:14:05.007Z,9.63
2018-07-11T17:16:44.380Z,10.07
2018-07-11T17:19:15.930Z,9.97
2018-07-11T17:21:47.931Z,12.10
2018-07-11T17:24:17.421Z,12.90
2018-07-11T17:26:47.979Z,11.87
2018-07-11T17:29:20.416Z,12.63
2018-07-11T17:31:51.566Z,11.57
2018-07-11T17:34:20.592Z,10.90
2018-07-11T17:36:53.554Z,10.03
2018-07-11T17:39:22.141Z,10.20
2018-07-11T17:41:50.735Z,9.27
2018-07-11T17:44:21.217Z,9.20
2018-07-11T17:46:49.806Z,10.33
2018-07-11T17:49:27.565Z,9.90
2018-07-11T17:52:04.569Z,8.00
2018-07-11T17:55:11.040Z,7.00
2018-07-11T17:57:51.009Z,6.90
2018-07-11T18:00:48.750Z,6.73
2018-07-11T18:03:39.237Z,6.17
2018-07-11T18:06:30.449Z,6.10
2018-07-11T18:09:09.436Z,6.73
2018-07-11T18:11:54.846Z,7.17
2018-07-11T18:14:42.966Z,7.17
2018-07-11T18:17:21.565Z,6.77
2018-07-11T18:19:59.670Z,6.93
2018-07-11T18:23:11.261Z,7.57
2018-07-11T18:25:53.448Z,7.23
2018-07-11T18:28:42.952Z,6.87
2018-07-11T18:31:50.625Z,7.30
2018-07-11T18:34:35.492Z,7.20
2018-07-11T18:37:12.069Z,8.00
2018-07-11T18:39:58.133Z,9.10
2018-07-11T18:42:36.531Z,9.97
2018-07-11T18:45:18.160Z,9.30
2018-07-11T18:56:03.260Z,10.47
2018-07-11T18:58:39.796Z,12.50
2018-07-11T19:01:20.990Z,13.07
2018-07-11T19:06:05.720Z,14.33
2018-07-11T19:08:48.602Z,15.13
2018-07-11T19:11:23.501Z,14.73
2018-07-11T19:13:54.285Z,14.37
2018-07-11T19:16:59.709Z,15.30
2018-07-11T19:19:42.124Z,14.53
2018-07-11T19:22:22.580Z,14.80
2018-07-11T19:25:02.019Z,15.00
2018-07-11T19:28:39.509Z,15.20
2018-07-11T19:50:59.540Z,16.87
2018-07-11T19:53:36.579Z,17.80
2018-07-11T20:15:59.969Z,17.90
2018-07-11T20:18:28.623Z,17.63
2018-07-11T20:20:57.342Z,18.60
2018-07-11T20:23:26.064Z,19.10
2018-07-11T20:25:54.796Z,18.47
2018-07-11T20:28:23.421Z,18.33
2018-07-11T20:30:52.021Z,17.93
2018-07-11T20:33:20.681Z,18.70
2018-07-11T20:35:49.466Z,18.77
2018-07-11T20:38:18.395Z,19.73
2018-07-11T20:40:47.123Z,18.30
2018-07-11T20:43:16.132Z,18.83
2018-07-11T20:45:44.957Z,18.57
2018-07-11T20:48:13.615Z,18.50
2018-07-11T20:50:42.200Z,19.67
2018-07-11T20:53:11.009Z,20.43
2018-07-11T20:55:39.979Z,19.33
2018-07-11T20:58:19.939Z,19.30
2018-07-11T21:00:59.592Z,18.87
2018-07-11T21:04:40.326Z,20.73
2018-07-11T21:09:57.848Z,21.97
2018-07-11T21:12:38.762Z,21.40
2018-07-11T21:15:24.647Z,21.83
2018-07-11T21:18:10.057Z,24.70
2018-07-11T21:20:38.710Z,23.27
2018-07-11T21:23:07.510Z,23.13
2018-07-11T21:25:36.096Z,25.43
2018-07-11T21:28:04.751Z,25.60
2018-07-11T21:30:33.663Z,25.80
2018-07-11T21:33:02.308Z,23.47
2018-07-11T21:35:30.917Z,26.73
2018-07-11T21:37:59.516Z,27.17
2018-07-11T21:40:28.175Z,26.33
2018-07-11T21:42:56.786Z,27.53
2018-07-11T21:45:25.654Z,26.60
2018-07-11T21:47:54.352Z,28.47
2018-07-11T21:50:23.019Z,30.70
2018-07-11T21:52:51.607Z,33.77
2018-07-11T21:55:20.283Z,34.70
2018-07-11T21:57:48.827Z,36.70
2018-07-11T22:00:29.079Z,35.20
2018-07-11T22:02:57.664Z,36.90
2018-07-11T22:05:26.710Z,37.43
2018-07-11T22:07:55.436Z,39.87
2018-07-11T22:10:24.293Z,41.40
2018-07-11T22:12:52.929Z,39.80
2018-07-11T22:15:21.727Z,38.20
2018-07-11T22:18:01.611Z,39.33
2018-07-11T22:20:29.373Z,40.63
2018-07-11T22:22:56.756Z,38.63
2018-07-11T22:25:24.125Z,37.27
2018-07-11T22:27:51.740Z,39.23
2018-07-11T22:30:19.189Z,36.33
2018-07-11T22:32:46.559Z,30.27
2018-07-11T22:35:14.194Z,29.33
2018-07-11T22:37:41.780Z,23.10
2018-07-11T22:40:09.193Z,20.13
2018-07-11T22:42:36.833Z,15.30
2018-07-11T22:45:04.514Z,14.37
2018-07-11T22:47:32.509Z,17.17
2018-07-11T22:50:01.002Z,16.37
2018-07-11T22:52:30.475Z,16.23
2018-07-11T22:54:58.200Z,16.73
2018-07-11T22:57:25.615Z,17.83
2018-07-11T22:59:52.995Z,17.53
2018-07-11T23:02:20.569Z,17.67
2018-07-11T23:04:48.090Z,16.80
2018-07-11T23:07:15.444Z,16.60
2018-07-11T23:09:43.095Z,18.23
2018-07-11T23:12:10.527Z,17.97
2018-07-11T23:14:37.887Z,19.57
2018-07-11T23:17:05.431Z,30.23
2018-07-11T23:19:32.799Z,27.63
2018-07-11T23:22:00.172Z,34.33
2018-07-11T23:24:27.751Z,35.47
2018-07-11T23:26:55.161Z,37.53
2018-07-11T23:29:22.511Z,33.73
2018-07-11T23:31:49.920Z,31.83
2018-07-11T23:34:17.273Z,27.17
2018-07-11T23:36:44.633Z,28.73
2018-07-11T23:39:12.320Z,27.40
2018-07-11T23:41:39.764Z,26.40
2018-07-11T23:44:07.175Z,25.57
2018-07-11T23:46:34.800Z,24.97
2018-07-11T23:49:02.165Z,26.13
2018-07-11T23:51:29.527Z,28.33
2018-07-11T23:53:56.950Z,32.87
2018-07-11T23:56:24.571Z,28.60
2018-07-11T23:58:51.953Z,24.27
